Terminal Aerodrome Forecast
Issued by NWS

Home | Current Version | Previous Version | Graphics & Text | Print | Product List | Glossary On
Versions: 1 2 3 4 5 6 7 8 9 10 11 12 13 14 15 16 17 18
221
FTUS43 KICT 200520
TAFHUT
TAF
KHUT 200520Z 2006/2106 17014G20KT 5SM -RA OVC015
     FM200800 17010KT P6SM BKN025
     FM201300 19010KT P6SM SCT015
     FM202200 34010KT P6SM SKC=

USA.gov is the U.S. government's official web portal to all federal, state and local government web resources and services.